Terminal Aerodrome Forecast
Issued by NWS

Home | Current Version | Previous Version | Text Only | Print | Product List | Glossary On
Versions: 1 2 3 4 5 6 7 8 9 10 11 12
000
FTUS41 KBTV 250500
TAFSLK
TAF
KSLK 250523Z 2506/2606 00000KT P6SM SKC
     FM251000 00000KT P6SM SCT100 BKN150
     FM251500 07006KT P6SM SCT080 BKN150
     FM260400 09006KT 6SM -RA OVC050=

USA.gov is the U.S. government's official web portal to all federal, state and local government web resources and services.